NMSU Main Campus

Feb. 28, 2020, 12:05 p.m.

  • imperial
Air Temperature RH Dewpoint Wind Chill Heat Index Wind Speed Wind Direction Precipitation Solar Radiation Soil Temperature
Date Time Max Mean Mean Total Total
US/Mountain F % F F F MPH MPH MPH deg. deg. in. MJ/m^2 F
2020-02-27 12:05 53.64 15.26 7.42 53.64 53.64 4.03 6.71 4.43 0.0 320.6 0.0 0.241 48.36
2020-02-27 12:10 54.43 14.82 7.41 54.43 54.43 4.56 6.35 3.47 268.5 306.0 0.0 0.241 48.54
2020-02-27 12:15 55.02 14.48 7.38 55.02 55.02 4.56 5.46 3.44 244.3 280.0 0.0 0.242 48.72
2020-02-27 12:20 55.15 14.62 7.69 55.15 55.15 2.06 5.64 3.11 333.3 205.7 0.0 0.242 48.9
2020-02-27 12:25 56.48 14.21 8.13 56.48 56.48 2.95 4.38 2.86 220.3 33.6 0.0 0.242 49.08
2020-02-27 12:30 56.91 13.81 7.84 56.91 56.91 5.1 5.82 3.2 321.8 247.7 0.0 0.242 49.3
2020-02-27 12:35 57.51 14.35 9.17 57.51 57.51 3.13 4.74 2.3 233.0 280.5 0.0 0.242 49.48
2020-02-27 12:40 57.76 14.58 9.73 57.76 57.76 5.46 5.46 3.33 318.7 305.8 0.0 0.242 49.66
2020-02-27 12:45 56.89 13.67 7.6 56.89 56.89 3.67 7.07 4.23 230.7 291.8 0.0 0.241 49.84
2020-02-27 12:50 56.89 14.11 8.3 56.89 56.89 0.0 4.74 3.2 151.1 265.9 0.0 0.24 50.04
2020-02-27 12:55 56.41 13.97 7.69 56.41 56.41 3.31 5.28 3.27 64.8 212.0 0.0 0.24 50.22
2020-02-27 13:00 57.43 13.84 8.31 57.43 57.43 3.13 5.1 2.66 328.7 128.7 0.0 0.238 50.38
2020-02-27 13:05 57.49 13.97 8.56 57.49 57.49 2.95 5.28 2.95 61.2 69.9 0.0 0.237 50.56
2020-02-27 13:10 58.03 13.63 8.44 58.03 58.03 4.92 6.17 3.67 36.7 38.5 0.0 0.236 50.7
2020-02-27 13:15 57.24 15.05 10.02 57.24 57.24 3.67 6.53 3.89 69.4 320.3 0.0 0.234 50.88
2020-02-27 13:20 57.85 13.7 8.41 57.85 57.85 2.59 4.21 2.93 132.7 55.2 0.0 0.233 51.03
2020-02-27 13:25 57.97 14.64 9.99 57.97 57.97 4.56 7.78 5.37 298.0 297.2 0.0 0.231 51.19
2020-02-27 13:30 57.79 14.98 10.36 57.79 57.79 5.46 6.53 3.76 265.2 319.9 0.0 0.229 51.35
2020-02-27 13:35 57.85 14.44 9.58 57.85 57.85 3.85 7.96 4.97 266.5 292.4 0.0 0.228 51.49
2020-02-27 13:40 58.03 13.7 8.56 58.03 58.03 4.03 4.74 2.95 310.0 26.3 0.0 0.226 51.64
2020-02-27 13:45 59.0 14.64 10.82 59.0 59.0 2.06 5.1 3.18 9.2 17.0 0.0 0.224 51.78
2020-02-27 13:50 58.77 13.67 9.1 58.77 58.77 1.16 4.38 2.68 112.0 70.5 0.0 0.222 51.93
2020-02-27 13:55 60.33 12.72 8.73 60.33 60.33 3.31 3.67 2.15 135.8 117.3 0.0 0.219 52.07
2020-02-27 14:00 59.79 12.89 8.6 59.79 59.79 1.16 5.64 2.77 336.2 157.4 0.0 0.217 52.21
2020-02-27 14:05 60.04 13.8 10.33 60.04 60.04 3.85 4.03 2.59 24.2 314.1 0.0 0.214 52.36
2020-02-27 14:10 62.04 12.08 8.93 62.04 62.04 3.49 3.49 2.3 269.8 311.4 0.0 0.211 52.5
2020-02-27 14:15 60.64 13.26 9.9 60.64 60.64 4.74 7.43 4.9 249.4 230.4 0.0 0.208 52.65
2020-02-27 14:20 60.39 13.09 9.42 60.39 60.39 4.92 6.53 5.21 246.4 245.8 0.0 0.205 52.79
2020-02-27 14:25 60.26 13.7 10.34 60.26 60.26 4.92 7.25 4.72 322.4 277.4 0.0 0.202 52.93
2020-02-27 14:30 60.19 13.29 9.6 60.19 60.19 2.42 7.61 4.94 304.8 289.8 0.0 0.199 53.06
2020-02-27 14:35 60.26 13.63 10.22 60.26 60.26 2.24 6.35 3.18 103.3 242.5 0.0 0.195 53.19
2020-02-27 14:40 60.93 12.58 8.96 60.93 60.93 0.98 4.92 2.95 338.7 130.7 0.0 0.192 53.33
2020-02-27 14:45 61.77 13.09 10.52 61.77 61.77 2.95 4.74 2.46 261.2 312.0 0.0 0.189 53.44
2020-02-27 14:50 62.01 12.38 9.45 62.01 62.01 2.95 5.28 3.36 267.5 271.8 0.0 0.185 53.58
2020-02-27 14:55 61.95 12.89 10.31 61.95 61.95 7.61 7.61 5.23 276.7 244.5 0.0 0.181 53.74
2020-02-27 15:00 62.31 12.85 10.53 62.31 62.31 3.85 7.25 4.59 298.1 259.0 0.0 0.177 53.85
2020-02-27 15:05 62.37 13.46 11.61 62.37 62.37 3.85 8.68 5.23 295.1 309.7 0.0 0.173 53.98
2020-02-27 15:10 62.49 12.95 10.84 62.49 62.49 4.56 5.46 3.49 259.2 289.6 0.0 0.169 54.1
2020-02-27 15:15 62.13 12.45 9.68 62.13 62.13 2.59 7.61 5.1 257.3 248.9 0.0 0.165 54.21
2020-02-27 15:20 62.13 12.85 10.39 62.13 62.13 2.06 5.1 3.56 269.4 257.4 0.0 0.159 54.36
2020-02-27 15:25 62.8 12.18 9.71 62.8 62.8 4.21 6.17 3.33 247.6 224.3 0.0 0.151 54.46
2020-02-27 15:30 62.44 13.26 11.33 62.44 62.44 2.95 6.0 3.91 0.6 287.3 0.0 0.148 54.59
2020-02-27 15:35 63.46 12.65 11.09 63.46 63.46 3.49 6.17 3.04 18.8 301.7 0.0 0.149 54.7
2020-02-27 15:40 63.28 12.25 10.22 63.28 63.28 5.46 5.46 3.47 221.4 337.7 0.0 0.145 54.84
2020-02-27 15:45 63.54 11.94 9.85 63.54 63.54 0.0 4.56 2.26 210.0 227.9 0.0 0.135 54.95
2020-02-27 15:50 63.79 12.62 11.29 63.79 63.79 2.42 2.59 1.59 323.9 46.0 0.0 0.126 55.06
2020-02-27 15:55 63.36 11.98 9.78 63.36 63.36 5.28 7.96 5.15 265.9 299.1 0.0 0.123 55.17
2020-02-27 16:00 63.61 12.25 10.48 63.61 63.61 0.0 3.67 1.16 287.1 225.8 0.0 0.123 55.29
2020-02-27 16:05 64.2 11.57 9.66 64.2 64.2 3.13 4.56 2.64 126.6 347.6 0.0 0.099 55.4
2020-02-27 16:10 63.97 11.71 9.75 63.97 63.97 1.16 4.56 2.59 199.7 275.6 0.0 0.108 55.51
2020-02-27 16:15 63.97 12.31 10.87 63.97 63.97 3.13 4.03 2.48 334.8 250.0 0.0 0.088 55.6
2020-02-27 16:20 63.43 12.01 9.89 63.43 63.43 0.0 3.67 1.92 125.9 68.1 0.0 0.074 55.71
2020-02-27 16:25 63.66 11.13 8.38 63.66 63.66 3.31 5.64 1.9 216.8 170.2 0.0 0.097 55.81
2020-02-27 16:30 63.84 11.54 9.32 63.84 63.84 3.67 6.35 3.22 54.7 354.8 0.0 0.07 55.89
2020-02-27 16:35 63.5 11.57 9.11 63.5 63.5 1.88 4.56 3.36 44.8 8.2 0.0 0.056 55.96
2020-02-27 16:40 63.73 11.4 8.97 63.73 63.73 2.42 5.46 3.27 2.0 324.8 0.0 0.076 56.05
2020-02-27 16:45 63.32 11.47 8.78 63.32 63.32 2.24 4.21 1.99 302.1 311.8 0.0 0.052 56.16
2020-02-27 16:50 62.83 11.71 8.86 62.83 62.83 2.42 4.56 1.99 17.9 337.1 0.0 0.027 56.19
2020-02-27 16:55 62.83 12.11 9.61 62.83 62.83 4.74 4.74 1.5 308.2 255.1 0.0 0.029 56.26
2020-02-27 17:00 62.71 11.78 8.9 62.71 62.71 0.0 4.56 2.59 281.8 317.7 0.0 0.03 56.35
2020-02-27 17:05 62.65 11.95 9.17 62.65 62.65 1.16 3.31 1.79 210.2 216.8 0.0 0.045 56.39
2020-02-27 17:10 63.19 11.88 9.46 63.19 63.19 1.16 1.34 0.51 287.3 196.3 0.0 0.046 56.43
2020-02-27 17:15 63.32 12.28 10.3 63.32 63.32 5.64 6.0 2.59 286.7 282.7 0.0 0.044 56.48
2020-02-27 17:20 62.47 12.55 10.13 62.47 62.47 2.95 4.56 2.89 262.1 276.6 0.0 0.034 56.53
2020-02-27 17:25 62.42 12.18 9.41 62.42 62.42 2.77 6.0 3.6 246.9 249.2 0.0 0.028 56.57
2020-02-27 17:30 62.06 12.82 10.28 62.06 62.06 2.24 3.13 2.04 209.7 241.5 0.0 0.015 56.59
2020-02-27 17:35 61.65 12.96 10.19 61.65 61.65 2.06 2.59 1.86 207.4 202.2 0.0 0.012 56.61
2020-02-27 17:40 61.34 13.33 10.58 61.34 61.34 0.0 2.42 1.05 233.4 238.5 0.0 0.01 56.64
2020-02-27 17:45 61.11 14.31 11.99 61.11 61.11 0.98 2.59 1.07 152.3 233.6 0.0 0.007 56.64
2020-02-27 17:50 60.75 15.29 13.2 60.75 60.75 0.0 0.81 0.04 92.0 129.8 0.0 0.004 56.66
2020-02-27 17:55 59.95 16.0 13.6 59.95 59.95 1.16 1.34 0.45 105.9 115.3 0.0 0.003 56.68
2020-02-27 18:00 59.22 15.76 12.66 59.22 59.22 0.0 1.16 0.2 166.1 117.2 0.0 0.001 56.68
2020-02-27 18:05 58.68 15.8 12.28 58.68 58.68 0.0 0.0 0.0 163.9 0.0 0.0 0.001 56.68
2020-02-27 18:10 57.83 16.03 11.92 57.83 57.83 0.0 0.0 0.0 166.8 0.0 0.0 0.0 56.66
2020-02-27 18:15 57.47 16.24 11.92 57.47 57.47 0.0 0.0 0.0 73.7 0.0 0.0 0.0 56.64
2020-02-27 18:20 57.34 16.58 12.28 57.34 57.34 0.0 0.0 0.0 93.8 0.0 0.0 0.0 56.62
2020-02-27 18:25 57.24 16.78 12.47 57.24 57.24 0.0 0.0 0.0 116.2 0.0 0.0 0.0 56.64
2020-02-27 18:30 56.39 17.19 12.32 56.39 56.39 0.0 0.0 0.0 116.3 0.0 0.0 0.0 56.61
2020-02-27 18:35 55.85 17.25 11.96 55.85 55.85 0.0 0.0 0.0 141.2 0.0 0.0 0.0 56.57
2020-02-27 18:40 55.85 19.45 14.69 55.85 55.85 1.7 3.31 0.76 277.0 257.4 0.0 0.0 56.53
2020-02-27 18:45 56.7 16.65 11.85 56.7 56.7 2.06 4.03 2.73 237.7 246.4 0.0 0.0 56.5
2020-02-27 18:50 56.64 16.92 12.17 56.64 56.64 4.03 4.92 3.0 237.4 240.3 0.0 0.0 56.46
2020-02-27 18:55 56.23 17.16 12.15 56.23 56.23 1.88 3.31 2.33 237.3 239.1 0.0 0.0 56.43
2020-02-27 19:00 55.8 17.16 11.8 55.8 55.8 1.88 3.85 2.19 261.1 260.4 0.0 0.0 56.39
2020-02-27 19:05 55.44 17.56 12.02 55.44 55.44 0.98 2.77 1.52 254.5 280.4 0.0 0.0 56.35
2020-02-27 19:10 55.31 17.73 12.14 55.31 55.31 2.59 2.95 1.86 247.2 264.7 0.0 0.0 56.3
2020-02-27 19:15 55.08 17.53 11.69 55.08 55.08 0.0 2.77 1.52 300.7 273.2 0.0 0.0 56.25
2020-02-27 19:20 54.77 17.73 11.69 54.77 54.77 2.95 3.67 2.04 0.4 324.6 0.0 0.0 56.19
2020-02-27 19:25 54.54 17.93 11.75 54.54 54.54 2.95 3.13 2.44 20.1 13.3 0.0 0.0 56.1
2020-02-27 19:30 54.79 17.94 11.97 54.79 54.79 0.0 2.77 1.81 29.1 38.0 0.0 0.0 56.07
2020-02-27 19:35 54.48 18.54 12.47 54.48 54.48 0.0 2.42 1.28 332.6 6.6 0.0 0.0 55.99
2020-02-27 19:40 53.94 18.85 12.4 53.94 53.94 0.81 2.24 1.3 325.1 340.1 0.0 0.0 55.92
2020-02-27 19:45 53.69 20.23 13.79 53.69 53.69 0.0 2.06 0.89 30.2 357.8 0.0 0.0 55.89
2020-02-27 19:50 52.59 20.2 12.84 52.59 52.59 0.0 0.81 0.02 222.4 15.2 0.0 0.0 55.81
2020-02-27 19:55 52.3 20.64 13.09 52.3 52.3 0.0 0.0 0.0 138.5 0.0 0.0 0.0 55.74
2020-02-27 20:00 51.8 21.55 13.65 51.8 51.8 1.34 1.52 0.85 178.3 164.5 0.0 0.0 55.67
2020-02-27 20:05 51.03 23.61 15.08 51.03 51.03 0.0 2.42 1.3 166.3 173.9 0.0 0.0 55.62
2020-02-27 20:10 50.47 22.77 13.78 50.47 50.47 0.0 0.0 0.0 244.8 0.0 0.0 0.0 55.54
2020-02-27 20:15 49.69 23.65 13.99 49.69 49.69 0.0 0.0 0.0 181.6 0.0 0.0 0.0 55.49
2020-02-27 20:20 49.21 24.19 14.09 49.21 49.21 0.0 0.0 0.0 193.3 0.0 0.0 0.0 55.4
2020-02-27 20:25 48.78 25.51 14.94 48.78 48.78 0.0 0.0 0.0 232.9 0.0 0.0 0.0 55.33
2020-02-27 20:30 48.11 24.93 13.84 48.11 48.11 0.0 0.0 0.0 76.4 0.0 0.0 0.0 55.27
2020-02-27 20:35 48.24 26.42 15.28 48.24 48.24 0.0 0.0 0.0 189.9 0.0 0.0 0.0 55.2
2020-02-27 20:40 48.24 26.18 15.07 48.24 48.24 0.0 0.0 0.0 128.6 0.0 0.0 0.0 55.13
2020-02-27 20:45 48.06 28.89 17.19 48.06 48.06 0.98 0.98 0.02 179.6 179.6 0.0 0.0 55.06
2020-02-27 20:50 46.83 31.45 18.09 46.83 46.83 0.98 4.38 2.57 176.0 180.6 0.0 0.0 54.99
2020-02-27 20:55 46.29 31.72 17.82 46.29 46.29 0.0 2.24 0.76 174.2 169.5 0.0 0.0 54.91
2020-02-27 21:00 45.99 31.18 17.15 45.99 45.99 0.98 1.88 0.83 223.2 205.5 0.0 0.0 54.84
2020-02-27 21:05 45.99 30.37 16.54 45.99 45.99 2.42 2.42 0.85 224.7 210.7 0.0 0.0 54.77
2020-02-27 21:10 46.42 28.79 15.68 46.42 46.42 2.59 2.59 1.63 175.8 204.5 0.0 0.0 54.7
2020-02-27 21:15 46.29 29.29 15.97 46.29 46.29 2.24 2.59 2.21 174.0 181.1 0.0 0.0 54.63
2020-02-27 21:20 46.29 31.76 17.84 46.29 46.29 1.52 2.06 1.74 186.3 188.6 0.0 0.0 54.55
2020-02-27 21:25 45.75 29.97 16.03 45.75 45.75 1.52 1.88 1.43 174.0 177.2 0.0 0.0 54.48
2020-02-27 21:30 45.27 31.25 16.57 45.27 45.27 0.0 1.34 0.11 195.4 166.7 0.0 0.0 54.39
2020-02-27 21:35 45.39 30.78 16.33 45.39 45.39 1.7 2.77 1.9 186.2 180.8 0.0 0.0 54.32
2020-02-27 21:40 44.73 31.86 16.54 44.73 44.73 0.0 2.59 1.52 148.8 162.2 0.0 0.0 54.25
2020-02-27 21:45 44.31 33.08 17.05 44.31 44.31 0.0 1.52 0.34 172.7 169.1 0.0 0.0 54.18
2020-02-27 21:50 43.7 33.96 17.11 43.7 43.7 0.81 2.06 0.67 115.9 146.4 0.0 0.0 54.1
2020-02-27 21:55 43.57 32.98 16.32 43.57 43.57 2.24 2.59 1.74 127.1 130.5 0.0 0.0 54.03
2020-02-27 22:00 43.7 32.07 15.79 43.7 43.7 2.24 2.42 1.41 135.8 142.2 0.0 0.0 53.96
2020-02-27 22:05 44.13 30.21 14.8 44.13 44.13 2.42 3.31 2.44 125.3 138.7 0.0 0.0 53.89
2020-02-27 22:10 44.44 29.84 14.78 44.44 44.44 1.34 2.59 1.59 135.8 132.5 0.0 0.0 53.82
2020-02-27 22:15 44.67 28.83 14.2 44.67 44.67 2.42 2.77 1.63 88.7 120.0 0.0 0.0 53.74
2020-02-27 22:20 45.05 29.17 14.8 45.05 45.05 0.0 2.95 1.23 178.7 118.8 0.0 0.0 53.67
2020-02-27 22:25 44.31 30.58 15.23 44.31 44.31 1.16 2.06 1.28 140.3 150.5 0.0 0.0 53.62
2020-02-27 22:30 44.01 31.97 15.99 44.01 44.01 0.0 1.88 0.92 308.4 136.8 0.0 0.0 53.55
2020-02-27 22:35 43.47 32.27 15.73 43.47 43.47 0.0 0.81 0.09 155.6 180.8 0.0 0.0 53.49
2020-02-27 22:40 42.98 33.59 16.22 42.98 42.98 1.34 2.59 1.59 261.9 260.4 0.0 0.0 53.42
2020-02-27 22:45 42.91 32.07 15.09 42.91 42.91 0.0 1.34 0.43 120.5 143.7 0.0 0.0 53.35
2020-02-27 22:50 43.16 32.78 15.82 43.16 43.16 0.81 1.16 0.56 159.0 136.2 0.0 0.0 53.29
2020-02-27 22:55 43.09 32.34 15.45 43.09 43.09 0.0 2.42 1.03 171.7 148.2 0.0 0.0 53.22
2020-02-27 23:00 42.73 32.31 15.11 42.73 42.73 0.0 1.16 0.22 141.2 157.2 0.0 0.0 53.15
2020-02-27 23:05 43.03 31.63 14.89 43.03 43.03 1.7 3.31 1.72 123.4 128.1 0.0 0.0 53.1
2020-02-27 23:10 43.34 30.72 14.49 41.98 43.34 3.13 4.03 2.08 154.0 133.9 0.0 0.0 53.02
2020-02-27 23:15 43.9 30.08 14.49 43.9 43.9 2.77 4.56 3.13 113.6 117.8 0.0 0.0 52.95
2020-02-27 23:20 44.01 29.94 14.48 44.01 44.01 2.77 3.67 2.77 113.8 111.2 0.0 0.0 52.88
2020-02-27 23:25 43.84 30.49 14.76 43.84 43.84 2.42 3.49 2.1 112.4 122.4 0.0 0.0 52.83
2020-02-27 23:30 44.13 28.86 13.75 44.13 44.13 1.88 3.67 2.35 93.2 105.1 0.0 0.0 52.77
2020-02-27 23:35 44.56 27.85 13.32 44.56 44.56 1.16 3.49 2.15 91.3 102.4 0.0 0.0 52.72
2020-02-27 23:40 44.56 29.07 14.29 44.56 44.56 0.0 0.81 0.02 222.0 91.2 0.0 0.0 52.65
2020-02-27 23:45 44.08 29.71 14.37 44.08 44.08 0.0 0.81 0.11 68.0 46.4 0.0 0.0 52.57
2020-02-27 23:50 43.9 29.84 14.31 43.9 43.9 0.0 2.24 1.03 72.5 59.8 0.0 0.0 52.52
2020-02-27 23:55 43.52 27.92 12.47 43.52 43.52 0.0 0.0 0.0 98.8 0.0 0.0 0.0 52.45
2020-02-28 00:00 43.41 30.32 14.25 43.41 43.41 1.88 2.06 0.49 204.0 204.2 0.0 0.0 52.41
2020-02-28 00:05 42.98 31.87 15.01 42.98 42.98 1.16 2.24 1.05 222.0 227.8 0.0 0.0 52.32
2020-02-28 00:10 42.67 30.99 14.1 42.67 42.67 0.0 1.52 0.22 286.1 226.0 0.0 0.0 52.27
2020-02-28 00:15 42.37 32.28 14.77 42.37 42.37 0.0 0.0 0.0 207.2 0.0 0.0 0.0 52.2
2020-02-28 00:20 41.47 36.13 16.56 41.47 41.47 2.06 3.13 1.83 232.5 220.7 0.0 0.0 52.14
2020-02-28 00:25 41.16 37.52 17.16 41.16 41.16 0.0 2.42 0.89 275.5 208.3 0.0 0.0 52.07
2020-02-28 00:30 40.5 33.6 14.03 40.5 40.5 0.0 1.7 0.72 337.5 313.8 0.0 0.0 52.0
2020-02-28 00:35 40.42 35.35 15.13 40.42 40.42 0.0 2.59 1.43 9.4 356.6 0.0 0.0 51.96
2020-02-28 00:40 40.37 35.52 15.19 40.37 40.37 0.98 1.52 0.74 267.0 286.9 0.0 0.0 51.89
2020-02-28 00:45 40.06 35.53 14.93 40.06 40.06 0.0 0.81 0.16 291.8 290.8 0.0 0.0 51.82
2020-02-28 00:50 39.88 37.12 15.77 39.88 39.88 0.0 0.98 0.09 293.5 234.2 0.0 0.0 51.76
2020-02-28 00:55 39.22 37.05 15.13 39.22 39.22 0.0 0.0 0.0 341.4 0.0 0.0 0.0 51.73
2020-02-28 01:00 38.98 37.29 15.07 38.98 38.98 0.0 0.0 0.0 323.0 0.0 0.0 0.0 51.66
2020-02-28 01:05 39.04 38.71 15.98 39.04 39.04 1.52 2.77 1.74 18.8 343.6 0.0 0.0 51.58
2020-02-28 01:10 39.24 37.63 15.51 39.24 39.24 1.88 1.88 1.32 38.6 36.8 0.0 0.0 51.53
2020-02-28 01:15 39.72 37.56 15.9 39.72 39.72 0.0 1.88 0.45 23.7 34.8 0.0 0.0 51.48
2020-02-28 01:20 39.06 38.64 15.95 39.06 39.06 0.0 0.0 0.0 291.3 0.0 0.0 0.0 51.4
2020-02-28 01:25 38.62 39.59 16.12 38.62 38.62 0.0 0.0 0.0 291.2 0.0 0.0 0.0 51.35
2020-02-28 01:30 38.19 41.24 16.68 38.19 38.19 1.88 2.06 0.63 191.3 189.5 0.0 0.0 51.28
2020-02-28 01:35 37.83 46.25 19.01 37.83 37.83 0.81 2.24 1.66 249.9 221.4 0.0 0.0 51.22
2020-02-28 01:40 37.78 40.57 15.92 37.78 37.78 1.34 1.52 0.43 265.3 280.1 0.0 0.0 51.15
2020-02-28 01:45 37.83 41.85 16.69 37.83 37.83 0.0 1.7 0.36 230.9 266.0 0.0 0.0 51.08
2020-02-28 01:50 37.58 42.29 16.7 37.58 37.58 0.0 0.0 0.0 174.3 0.0 0.0 0.0 51.03
2020-02-28 01:55 36.99 42.87 16.48 36.99 36.99 0.0 0.0 0.0 222.8 0.0 0.0 0.0 50.97
2020-02-28 02:00 36.55 43.17 16.25 36.55 36.55 0.0 0.0 0.0 133.5 0.0 0.0 0.0 50.9
2020-02-28 02:05 36.43 44.49 16.83 36.43 36.43 0.0 0.0 0.0 139.7 0.0 0.0 0.0 50.85
2020-02-28 02:10 36.55 44.66 17.03 36.55 36.55 0.0 0.0 0.0 56.4 0.0 0.0 0.0 50.77
2020-02-28 02:15 36.86 43.0 16.43 36.86 36.86 2.06 2.24 0.67 51.3 49.3 0.0 0.0 50.72
2020-02-28 02:20 37.65 41.95 16.58 37.65 37.65 0.0 2.06 1.12 34.8 47.8 0.0 0.0 50.65
2020-02-28 02:25 37.4 46.99 18.99 37.4 37.4 0.0 0.81 0.02 304.2 326.3 0.0 0.0 50.59
2020-02-28 02:30 37.09 47.8 19.11 37.09 37.09 0.0 0.0 0.0 318.8 0.0 0.0 0.0 50.52
2020-02-28 02:35 36.86 44.76 17.36 36.86 36.86 0.81 0.81 0.02 181.0 181.0 0.0 0.0 50.47
2020-02-28 02:40 36.37 48.95 19.0 36.37 36.37 0.0 2.59 1.68 187.3 184.5 0.0 0.0 50.41
2020-02-28 02:45 35.82 48.28 18.16 35.82 35.82 0.0 0.0 0.0 199.1 0.0 0.0 0.0 50.34
2020-02-28 02:50 35.53 48.07 17.79 35.53 35.53 0.0 0.0 0.0 338.1 0.0 0.0 0.0 50.29
2020-02-28 02:55 35.33 48.92 18.02 35.33 35.33 0.81 1.88 0.65 2.6 340.2 0.0 0.0 50.22
2020-02-28 03:00 35.1 49.06 17.87 35.1 35.1 0.0 0.0 0.0 263.5 0.0 0.0 0.0 50.14
2020-02-28 03:05 35.35 49.33 18.23 35.35 35.35 0.0 0.0 0.0 332.8 0.0 0.0 0.0 50.11
2020-02-28 03:10 35.53 46.56 17.05 35.53 35.53 1.34 1.7 1.05 329.7 327.7 0.0 0.0 50.04
2020-02-28 03:15 35.65 46.86 17.32 35.65 35.65 0.0 1.52 0.69 293.4 316.4 0.0 0.0 49.98
2020-02-28 03:20 35.96 45.95 17.15 35.96 35.96 0.0 0.0 0.0 295.5 0.0 0.0 0.0 49.91
2020-02-28 03:25 35.83 48.01 18.05 35.83 35.83 0.0 0.0 0.0 333.6 0.0 0.0 0.0 49.86
2020-02-28 03:30 35.4 47.03 17.17 35.4 35.4 0.0 0.0 0.0 331.1 0.0 0.0 0.0 49.8
2020-02-28 03:35 35.22 47.48 17.23 35.22 35.22 0.0 0.0 0.0 303.4 0.0 0.0 0.0 49.75
2020-02-28 03:40 35.35 46.77 16.99 35.35 35.35 1.52 1.7 1.34 294.1 305.5 0.0 0.0 49.69
2020-02-28 03:45 35.17 48.22 17.54 35.17 35.17 0.0 2.06 0.92 235.3 289.0 0.0 0.0 49.62
2020-02-28 03:50 35.17 47.55 17.21 35.17 35.17 0.0 0.98 0.16 253.7 222.1 0.0 0.0 49.57
2020-02-28 03:55 35.29 48.53 17.8 35.29 35.29 0.0 1.52 0.58 139.6 266.8 0.0 0.0 49.5
2020-02-28 04:00 34.75 51.06 18.48 34.75 34.75 0.0 0.0 0.0 184.5 0.0 0.0 0.0 49.44
2020-02-28 04:05 34.38 51.74 18.44 34.38 34.38 0.98 1.52 1.05 166.9 176.5 0.0 0.0 49.41
2020-02-28 04:10 34.02 52.55 18.47 34.02 34.02 1.16 1.88 1.3 155.2 150.4 0.0 0.0 49.33
2020-02-28 04:15 33.71 52.96 18.36 33.71 33.71 0.0 0.98 0.07 155.9 155.7 0.0 0.0 49.3
2020-02-28 04:20 33.1 54.95 18.65 33.1 33.1 0.0 0.0 0.0 155.9 0.0 0.0 0.0 49.23
2020-02-28 04:25 32.74 54.21 18.0 32.74 32.74 0.0 0.0 0.0 197.9 0.0 0.0 0.0 49.17
2020-02-28 04:30 32.81 54.41 18.15 32.81 32.81 0.0 0.0 0.0 165.1 0.0 0.0 0.0 49.14
2020-02-28 04:35 32.92 53.3 17.78 32.92 32.92 2.06 2.24 0.36 162.2 169.3 0.0 0.0 49.06
2020-02-28 04:40 33.17 54.01 18.32 33.17 33.17 0.0 2.24 0.92 213.9 168.4 0.0 0.0 49.01
2020-02-28 04:45 32.92 55.73 18.81 32.92 32.92 1.34 1.52 0.31 315.7 314.1 0.0 0.0 48.96
2020-02-28 04:50 32.92 52.79 17.55 32.92 32.92 2.24 2.59 1.68 341.0 344.2 0.0 0.0 48.9
2020-02-28 04:55 33.78 51.88 17.95 30.68 33.78 3.49 3.85 3.04 7.7 352.8 0.0 0.0 48.85
2020-02-28 05:00 33.78 51.07 17.59 33.78 33.78 2.59 3.85 3.06 334.0 343.8 0.0 0.0 48.79
2020-02-28 05:05 33.89 50.79 17.56 31.02 33.89 3.31 3.67 2.68 323.7 324.2 0.0 0.0 48.74
2020-02-28 05:10 34.7 47.51 16.76 32.17 34.7 3.13 4.38 3.2 336.6 327.9 0.0 0.0 48.7
2020-02-28 05:15 35.6 44.44 16.04 35.6 35.6 2.06 3.13 2.42 333.3 334.3 0.0 0.0 48.63
2020-02-28 05:20 35.98 43.08 15.67 35.98 35.98 2.42 3.13 2.55 1.0 328.7 0.0 0.0 48.58
2020-02-28 05:25 36.21 41.83 15.21 36.21 36.21 2.06 2.95 2.17 329.6 336.7 0.0 0.0 48.54
2020-02-28 05:30 36.57 40.89 15.01 33.49 36.57 3.85 4.03 3.22 318.5 316.5 0.0 0.0 48.49
2020-02-28 05:35 36.64 41.63 15.49 34.38 36.64 3.13 4.21 3.24 307.9 320.5 0.0 0.0 48.43
2020-02-28 05:40 36.7 41.22 15.31 33.63 36.7 3.85 4.21 3.6 319.5 331.6 0.0 0.0 48.4
2020-02-28 05:45 36.81 41.93 15.8 32.91 36.81 4.74 5.82 4.59 319.1 334.1 0.0 0.0 48.34
2020-02-28 05:50 36.5 42.81 16.0 36.5 36.5 1.7 3.85 2.82 277.3 311.1 0.0 0.0 48.29
2020-02-28 05:55 36.32 48.79 18.87 36.32 36.32 2.59 2.59 1.81 317.1 289.9 0.0 0.0 48.25
2020-02-28 06:00 36.01 47.64 18.03 36.01 36.01 1.88 2.42 2.06 318.2 305.3 0.0 0.0 48.2
2020-02-28 06:05 35.71 44.77 16.31 35.71 35.71 0.81 2.06 0.89 85.3 352.8 0.0 0.0 48.16
2020-02-28 06:10 35.58 44.56 16.09 35.58 35.58 0.0 0.81 0.02 59.9 59.6 0.0 0.0 48.11
2020-02-28 06:15 35.28 48.89 17.96 35.28 35.28 0.0 0.0 0.0 60.1 0.0 0.0 0.0 48.06
2020-02-28 06:20 36.01 43.58 15.97 36.01 36.01 2.06 3.49 1.81 5.9 24.4 0.0 0.0 48.02
2020-02-28 06:25 36.57 43.11 16.23 34.29 36.57 3.13 3.67 2.33 321.2 358.5 0.0 0.0 47.98
2020-02-28 06:30 36.37 43.82 16.43 36.37 36.37 2.06 3.67 2.46 336.8 336.3 0.0 0.001 47.93
2020-02-28 06:35 36.5 42.2 15.67 33.4 36.5 3.85 3.85 1.54 45.9 2.2 0.0 0.001 47.89
2020-02-28 06:40 37.47 40.68 15.71 34.52 37.47 3.85 5.1 2.95 19.0 29.1 0.0 0.001 47.84
2020-02-28 06:45 37.9 40.13 15.79 34.05 37.9 4.92 5.46 4.12 337.0 351.1 0.0 0.003 47.79
2020-02-28 06:50 37.72 39.93 15.51 37.72 37.72 1.88 5.1 3.31 306.7 351.2 0.0 0.005 47.77
2020-02-28 06:55 37.72 40.3 15.72 37.72 37.72 2.42 2.77 2.08 332.6 347.0 0.0 0.007 47.71
2020-02-28 07:00 37.71 40.71 15.94 35.58 37.71 3.13 3.31 2.75 339.7 336.7 0.0 0.009 47.68
2020-02-28 07:05 37.58 42.02 16.55 37.58 37.58 2.77 3.85 3.06 312.4 329.2 0.0 0.011 47.62
2020-02-28 07:10 37.78 42.12 16.79 37.78 37.78 2.95 4.21 3.11 271.5 282.9 0.0 0.016 47.59
2020-02-28 07:15 37.71 41.14 16.18 35.37 37.71 3.31 5.1 3.69 318.3 299.4 0.0 0.015 47.55
2020-02-28 07:20 38.32 40.67 16.47 35.68 38.32 3.67 5.1 4.03 329.2 337.1 0.0 0.018 47.52
2020-02-28 07:25 38.44 41.24 16.9 35.64 38.44 3.85 5.1 3.87 303.1 313.1 0.0 0.02 47.5
2020-02-28 07:30 38.98 41.82 17.72 38.98 38.98 2.59 3.85 2.91 297.9 293.3 0.0 0.028 47.44
2020-02-28 07:35 39.42 40.77 17.52 36.27 39.42 4.38 5.28 3.74 304.4 305.3 0.0 0.034 47.43
2020-02-28 07:40 40.14 40.37 17.94 40.14 40.14 2.59 4.74 3.71 298.8 295.4 0.0 0.047 47.37
2020-02-28 07:45 40.87 37.9 17.14 37.67 40.87 4.74 5.64 4.0 311.4 289.4 0.0 0.045 47.34
2020-02-28 07:50 41.67 37.12 17.37 38.74 41.67 4.56 4.92 3.85 318.6 318.3 0.0 0.055 47.32
2020-02-28 07:55 42.51 35.73 17.24 40.5 42.51 3.67 5.28 3.91 315.9 318.8 0.0 0.07 47.28
2020-02-28 08:00 42.87 35.97 17.71 40.44 42.87 4.21 4.74 3.42 312.8 309.6 0.0 0.067 47.25
2020-02-28 08:05 43.12 35.76 17.8 41.04 43.12 3.85 5.1 4.03 300.4 309.9 0.0 0.066 47.21
2020-02-28 08:10 43.59 35.53 18.07 40.72 43.59 4.92 4.92 3.42 316.5 313.0 0.0 0.063 47.17
2020-02-28 08:15 44.26 33.93 17.59 42.5 44.26 3.67 6.53 4.14 337.2 337.9 0.0 0.075 47.16
2020-02-28 08:20 44.44 33.8 17.66 41.24 44.44 5.64 7.78 5.79 342.7 335.5 0.0 0.083 47.12
2020-02-28 08:25 44.98 32.88 17.49 43.17 44.98 3.85 8.12 6.46 338.5 347.1 0.0 0.093 47.12
2020-02-28 08:30 45.46 31.8 17.15 42.92 45.46 4.92 6.53 4.59 16.7 7.6 0.0 0.099 47.08
2020-02-28 08:35 46.02 30.65 16.78 43.95 46.02 4.38 5.82 4.23 42.5 13.3 0.0 0.093 47.07
2020-02-28 08:40 46.31 30.68 17.06 44.16 46.31 4.56 7.07 3.58 29.5 13.1 0.0 0.082 47.08
2020-02-28 08:45 46.54 30.31 16.98 44.43 46.54 4.56 6.35 4.43 11.8 9.6 0.0 0.104 47.07
2020-02-28 08:50 46.98 30.0 17.12 45.06 46.98 4.38 6.53 4.79 19.2 17.1 0.0 0.109 47.08
2020-02-28 08:55 47.82 29.16 17.2 45.8 47.82 4.74 6.89 4.99 329.5 352.0 0.0 0.116 47.08
2020-02-28 09:00 47.57 30.07 17.69 46.46 47.57 3.49 6.35 4.36 333.9 333.2 0.0 0.11 47.1
2020-02-28 09:05 48.0 29.36 17.51 46.52 48.0 4.03 7.43 5.1 318.8 327.8 0.0 0.111 47.1
2020-02-28 09:10 48.11 28.34 16.79 46.51 48.11 4.21 5.82 4.3 1.0 340.5 0.0 0.124 47.12
2020-02-28 09:15 48.67 29.93 18.54 47.42 48.67 3.85 4.92 3.96 278.8 320.6 0.0 0.137 47.14
2020-02-28 09:20 49.39 28.11 17.71 48.69 49.39 3.31 6.53 4.21 18.4 333.6 0.0 0.14 47.16
2020-02-28 09:25 49.64 28.78 18.47 49.64 49.64 1.88 4.21 2.82 272.6 306.0 0.0 0.131 47.19
2020-02-28 09:30 50.23 27.19 17.67 50.23 50.23 4.56 4.92 2.95 4.4 317.1 0.0 0.162 47.23
2020-02-28 09:35 50.47 25.67 16.53 50.47 50.47 3.85 5.1 3.87 271.9 321.0 0.0 0.139 47.28
2020-02-28 09:40 50.72 26.35 17.36 50.72 50.72 2.42 4.21 2.64 293.1 269.7 0.0 0.179 47.32
2020-02-28 09:45 51.49 25.43 17.19 51.49 51.49 2.59 5.28 3.27 341.6 341.4 0.0 0.166 47.35
2020-02-28 09:50 51.98 24.69 16.93 51.98 51.98 2.06 4.38 2.48 340.5 346.6 0.0 0.165 47.43
2020-02-28 09:55 51.85 26.82 18.74 51.85 51.85 2.77 5.82 3.71 317.5 296.4 0.0 0.161 47.46
2020-02-28 10:00 52.47 23.91 16.6 52.47 52.47 2.24 5.82 3.94 1.5 331.2 0.0 0.173 47.53
2020-02-28 10:05 53.37 24.01 17.46 53.37 53.37 3.85 4.92 3.15 312.4 347.1 0.0 0.176 47.61
2020-02-28 10:10 53.85 23.23 17.11 53.85 53.85 2.95 6.35 3.58 301.6 313.4 0.0 0.21 47.68
2020-02-28 10:15 54.39 24.21 18.52 54.39 54.39 4.03 5.1 2.33 293.3 289.0 0.0 0.215 47.77
2020-02-28 10:20 54.75 22.79 17.42 54.75 54.75 3.85 5.1 3.04 303.3 330.5 0.0 0.197 47.84
2020-02-28 10:25 55.11 22.15 17.07 55.11 55.11 2.59 4.56 2.66 277.0 358.1 0.0 0.184 47.95
2020-02-28 10:30 55.11 22.11 17.02 55.11 55.11 4.21 4.56 1.95 5.5 269.1 0.0 0.125 48.02
2020-02-28 10:35 55.04 22.65 17.52 55.04 55.04 0.81 4.74 2.84 254.6 331.6 0.0 0.116 48.11
2020-02-28 10:40 55.53 20.96 16.14 55.53 55.53 2.59 3.49 1.97 271.8 321.2 0.0 0.115 48.2
2020-02-28 10:45 55.15 20.49 15.3 55.15 55.15 0.81 3.13 1.77 227.7 289.3 0.0 0.117 48.31
2020-02-28 10:50 55.81 21.03 16.46 55.81 55.81 1.34 3.31 1.43 18.4 262.9 0.0 0.112 48.42
2020-02-28 10:55 55.76 21.37 16.78 55.76 55.76 2.06 3.67 2.51 50.6 336.8 0.0 0.127 48.52
2020-02-28 11:00 56.79 21.47 17.75 56.79 56.79 3.13 3.13 1.48 314.4 327.7 0.0 0.153 48.65
2020-02-28 11:05 56.73 22.08 18.36 56.73 56.73 4.21 4.21 3.04 330.3 14.2 0.0 0.149 48.76
2020-02-28 11:10 57.04 20.02 16.34 57.04 57.04 2.06 4.38 2.51 0.0 325.7 0.0 0.135 48.9
2020-02-28 11:15 57.09 19.95 16.3 57.09 57.09 0.98 4.56 2.19 325.0 4.8 0.0 0.169 49.01
2020-02-28 11:20 57.34 19.65 16.16 57.34 57.34 3.85 3.85 2.21 340.1 344.7 0.0 0.103 49.15
2020-02-28 11:25 56.97 19.34 15.49 56.97 56.97 2.42 4.38 3.29 52.5 356.5 0.0 0.084 49.26
2020-02-28 11:30 57.58 19.58 16.28 57.58 57.58 1.88 2.42 1.36 24.3 312.1 0.0 0.185 49.39
2020-02-28 11:35 58.5 17.69 14.7 58.5 58.5 2.95 3.67 2.46 257.7 311.4 0.0 0.207 49.51
2020-02-28 11:40 58.6 17.38 14.38 58.6 58.6 1.34 3.13 1.83 125.7 237.7 0.0 0.188 49.64
2020-02-28 11:45 59.4 17.59 15.31 59.4 59.4 1.34 2.77 2.1 139.7 135.3 0.0 0.227 49.77
2020-02-28 11:50 60.01 17.38 15.53 60.01 60.01 2.77 3.67 2.39 168.1 151.8 0.0 0.227 49.86
2020-02-28 11:55 59.34 17.42 15.04 59.34 59.34 2.42 3.67 2.86 197.2 181.5 0.0 0.154 50.0
2020-02-28 12:00 59.7 17.11 14.92 59.7 59.7 1.88 2.24 1.68 113.8 200.3 0.0 0.121 50.11
2020-02-28 12:05 59.52 16.77 14.32 59.52 59.52 2.77 2.95 1.3 132.8 104.4 0.0 0.121 50.22

Data is courtesy of the NM Climate Center. DO NOT USE IN LEGAL PROCEEDINGS.